sensor_id;sensor_type;location;lat;lon;timestamp;P1;durP1;ratioP1;P2;durP2;ratioP2
40252;SDS011;25972;51.854;4.534;2023-06-22T00:00:46;9.95;;;4.72;;
40252;SDS011;25972;51.854;4.534;2023-06-22T00:03:12;13.40;;;5.13;;
40252;SDS011;25972;51.854;4.534;2023-06-22T00:05:38;9.15;;;4.97;;
40252;SDS011;25972;51.854;4.534;2023-06-22T00:08:04;11.98;;;5.47;;
40252;SDS011;25972;51.854;4.534;2023-06-22T00:10:32;10.90;;;4.88;;
40252;SDS011;25972;51.854;4.534;2023-06-22T00:12:58;10.63;;;4.90;;
40252;SDS011;25972;51.854;4.534;2023-06-22T00:15:24;10.55;;;5.18;;
40252;SDS011;25972;51.854;4.534;2023-06-22T00:17:50;10.13;;;4.90;;
40252;SDS011;25972;51.854;4.534;2023-06-22T00:20:17;9.68;;;4.78;;
40252;SDS011;25972;51.854;4.534;2023-06-22T00:22:43;9.10;;;4.78;;
40252;SDS011;25972;51.854;4.534;2023-06-22T00:25:09;10.73;;;4.82;;
40252;SDS011;25972;51.854;4.534;2023-06-22T00:27:38;9.45;;;4.78;;
40252;SDS011;25972;51.854;4.534;2023-06-22T00:30:06;11.05;;;4.75;;
40252;SDS011;25972;51.854;4.534;2023-06-22T00:32:33;11.82;;;5.43;;
40252;SDS011;25972;51.854;4.534;2023-06-22T00:34:59;10.85;;;4.97;;
40252;SDS011;25972;51.854;4.534;2023-06-22T00:37:25;11.57;;;5.35;;
40252;SDS011;25972;51.854;4.534;2023-06-22T00:39:54;11.05;;;5.88;;
40252;SDS011;25972;51.854;4.534;2023-06-22T00:42:21;10.38;;;5.93;;
40252;SDS011;25972;51.854;4.534;2023-06-22T00:44:48;10.95;;;5.80;;
40252;SDS011;25972;51.854;4.534;2023-06-22T00:47:16;14.77;;;6.20;;
40252;SDS011;25972;51.854;4.534;2023-06-22T00:49:43;12.50;;;5.53;;
40252;SDS011;25972;51.854;4.534;2023-06-22T00:52:10;11.55;;;5.97;;
40252;SDS011;25972;51.854;4.534;2023-06-22T00:54:39;12.77;;;5.22;;
40252;SDS011;25972;51.854;4.534;2023-06-22T00:57:05;10.32;;;5.82;;
40252;SDS011;25972;51.854;4.534;2023-06-22T00:59:36;10.10;;;5.82;;
40252;SDS011;25972;51.854;4.534;2023-06-22T01:02:03;10.63;;;5.45;;
40252;SDS011;25972;51.854;4.534;2023-06-22T01:04:34;11.13;;;5.35;;
40252;SDS011;25972;51.854;4.534;2023-06-22T01:07:02;11.13;;;5.43;;
40252;SDS011;25972;51.854;4.534;2023-06-22T01:09:41;12.48;;;5.47;;
40252;SDS011;25972;51.854;4.534;2023-06-22T01:12:18;11.38;;;5.50;;
40252;SDS011;25972;51.854;4.534;2023-06-22T01:14:47;13.15;;;5.80;;
40252;SDS011;25972;51.854;4.534;2023-06-22T01:17:21;11.20;;;5.40;;
40252;SDS011;25972;51.854;4.534;2023-06-22T01:19:50;13.52;;;5.25;;
40252;SDS011;25972;51.854;4.534;2023-06-22T01:22:22;12.82;;;5.10;;
40252;SDS011;25972;51.854;4.534;2023-06-22T01:24:55;9.88;;;4.80;;
40252;SDS011;25972;51.854;4.534;2023-06-22T01:27:33;11.02;;;5.25;;
40252;SDS011;25972;51.854;4.534;2023-06-22T01:30:12;10.75;;;4.80;;
40252;SDS011;25972;51.854;4.534;2023-06-22T01:32:41;9.65;;;5.13;;
40252;SDS011;25972;51.854;4.534;2023-06-22T01:35:08;11.00;;;5.25;;
40252;SDS011;25972;51.854;4.534;2023-06-22T01:37:36;10.88;;;5.38;;
40252;SDS011;25972;51.854;4.534;2023-06-22T01:40:04;10.85;;;5.25;;
40252;SDS011;25972;51.854;4.534;2023-06-22T01:42:33;9.70;;;4.80;;
40252;SDS011;25972;51.854;4.534;2023-06-22T01:45:00;10.70;;;5.07;;
40252;SDS011;25972;51.854;4.534;2023-06-22T01:47:31;10.18;;;4.97;;
40252;SDS011;25972;51.854;4.534;2023-06-22T01:49:57;10.95;;;5.38;;
40252;SDS011;25972;51.854;4.534;2023-06-22T01:52:24;10.60;;;5.22;;
40252;SDS011;25972;51.854;4.534;2023-06-22T01:54:50;11.65;;;5.40;;
40252;SDS011;25972;51.854;4.534;2023-06-22T01:57:18;10.15;;;4.68;;
40252;SDS011;25972;51.854;4.534;2023-06-22T01:59:48;13.15;;;5.35;;
40252;SDS011;25972;51.854;4.534;2023-06-22T02:02:24;12.68;;;5.32;;
40252;SDS011;25972;51.854;4.534;2023-06-22T02:04:57;10.75;;;5.68;;
40252;SDS011;25972;51.854;4.534;2023-06-22T02:07:29;10.55;;;4.90;;
40252;SDS011;25972;51.854;4.534;2023-06-22T02:10:02;10.32;;;5.30;;
40252;SDS011;25972;51.854;4.534;2023-06-22T02:12:31;10.40;;;5.28;;
40252;SDS011;25972;51.854;4.534;2023-06-22T02:14:59;11.23;;;5.10;;
40252;SDS011;25972;51.854;4.534;2023-06-22T02:17:26;10.50;;;5.53;;
40252;SDS011;25972;51.854;4.534;2023-06-22T02:19:52;12.80;;;5.63;;
40252;SDS011;25972;51.854;4.534;2023-06-22T02:22:20;12.30;;;5.65;;
40252;SDS011;25972;51.854;4.534;2023-06-22T02:24:47;11.32;;;5.85;;
40252;SDS011;25972;51.854;4.534;2023-06-22T02:27:18;12.00;;;5.93;;
40252;SDS011;25972;51.854;4.534;2023-06-22T02:29:44;11.88;;;5.72;;
40252;SDS011;25972;51.854;4.534;2023-06-22T02:32:11;11.27;;;5.80;;
40252;SDS011;25972;51.854;4.534;2023-06-22T02:34:38;11.35;;;5.50;;
40252;SDS011;25972;51.854;4.534;2023-06-22T02:37:05;11.95;;;5.70;;
40252;SDS011;25972;51.854;4.534;2023-06-22T02:39:32;13.93;;;6.50;;
40252;SDS011;25972;51.854;4.534;2023-06-22T02:41:59;11.55;;;5.60;;
40252;SDS011;25972;51.854;4.534;2023-06-22T02:44:25;14.57;;;6.68;;
40252;SDS011;25972;51.854;4.534;2023-06-22T02:46:51;12.23;;;6.43;;
40252;SDS011;25972;51.854;4.534;2023-06-22T02:49:17;14.27;;;6.45;;
40252;SDS011;25972;51.854;4.534;2023-06-22T02:51:45;12.82;;;6.53;;
40252;SDS011;25972;51.854;4.534;2023-06-22T02:54:12;14.55;;;6.32;;
40252;SDS011;25972;51.854;4.534;2023-06-22T02:56:41;14.02;;;7.10;;
40252;SDS011;25972;51.854;4.534;2023-06-22T02:59:09;14.63;;;6.53;;
40252;SDS011;25972;51.854;4.534;2023-06-22T03:01:37;13.45;;;6.65;;
40252;SDS011;25972;51.854;4.534;2023-06-22T03:04:09;15.20;;;6.90;;
40252;SDS011;25972;51.854;4.534;2023-06-22T03:06:35;16.13;;;6.90;;
40252;SDS011;25972;51.854;4.534;2023-06-22T03:09:02;13.95;;;6.78;;
40252;SDS011;25972;51.854;4.534;2023-06-22T03:11:30;14.02;;;7.10;;
40252;SDS011;25972;51.854;4.534;2023-06-22T03:13:59;14.40;;;7.68;;
40252;SDS011;25972;51.854;4.534;2023-06-22T03:16:25;16.27;;;7.57;;
40252;SDS011;25972;51.854;4.534;2023-06-22T03:18:52;15.65;;;8.15;;
40252;SDS011;25972;51.854;4.534;2023-06-22T03:21:19;14.05;;;7.63;;
40252;SDS011;25972;51.854;4.534;2023-06-22T03:23:48;15.13;;;7.20;;
40252;SDS011;25972;51.854;4.534;2023-06-22T03:26:15;13.95;;;7.68;;
40252;SDS011;25972;51.854;4.534;2023-06-22T03:28:42;17.35;;;8.20;;
40252;SDS011;25972;51.854;4.534;2023-06-22T03:31:10;18.20;;;8.10;;
40252;SDS011;25972;51.854;4.534;2023-06-22T03:33:38;15.48;;;8.18;;
40252;SDS011;25972;51.854;4.534;2023-06-22T03:36:04;15.30;;;8.13;;
40252;SDS011;25972;51.854;4.534;2023-06-22T03:38:32;16.15;;;8.77;;
40252;SDS011;25972;51.854;4.534;2023-06-22T03:40:58;17.63;;;8.70;;
40252;SDS011;25972;51.854;4.534;2023-06-22T03:43:25;16.40;;;8.43;;
40252;SDS011;25972;51.854;4.534;2023-06-22T03:45:51;18.48;;;8.93;;
40252;SDS011;25972;51.854;4.534;2023-06-22T03:48:19;15.75;;;8.20;;
40252;SDS011;25972;51.854;4.534;2023-06-22T03:50:45;19.77;;;9.32;;
40252;SDS011;25972;51.854;4.534;2023-06-22T03:53:11;17.83;;;8.93;;
40252;SDS011;25972;51.854;4.534;2023-06-22T03:55:48;16.77;;;8.77;;
40252;SDS011;25972;51.854;4.534;2023-06-22T03:58:15;18.15;;;9.60;;
40252;SDS011;25972;51.854;4.534;2023-06-22T04:00:41;18.55;;;8.68;;
40252;SDS011;25972;51.854;4.534;2023-06-22T04:06:00;20.70;;;9.98;;
40252;SDS011;25972;51.854;4.534;2023-06-22T04:08:26;19.90;;;9.70;;
40252;SDS011;25972;51.854;4.534;2023-06-22T04:11:01;19.58;;;8.30;;
40252;SDS011;25972;51.854;4.534;2023-06-22T04:16:37;14.43;;;8.48;;
40252;SDS011;25972;51.854;4.534;2023-06-22T04:19:05;19.63;;;9.07;;
40252;SDS011;25972;51.854;4.534;2023-06-22T04:21:34;18.77;;;9.63;;
40252;SDS011;25972;51.854;4.534;2023-06-22T04:24:01;18.80;;;9.93;;
40252;SDS011;25972;51.854;4.534;2023-06-22T04:26:27;17.83;;;9.30;;
40252;SDS011;25972;51.854;4.534;2023-06-22T04:28:53;14.98;;;8.68;;
40252;SDS011;25972;51.854;4.534;2023-06-22T04:31:21;19.15;;;9.52;;
40252;SDS011;25972;51.854;4.534;2023-06-22T04:33:47;19.25;;;9.43;;
40252;SDS011;25972;51.854;4.534;2023-06-22T04:36:14;20.63;;;9.70;;
40252;SDS011;25972;51.854;4.534;2023-06-22T04:38:40;18.10;;;9.57;;
40252;SDS011;25972;51.854;4.534;2023-06-22T04:41:07;21.52;;;9.85;;
40252;SDS011;25972;51.854;4.534;2023-06-22T04:43:39;19.10;;;9.35;;
40252;SDS011;25972;51.854;4.534;2023-06-22T04:46:05;16.98;;;9.38;;
40252;SDS011;25972;51.854;4.534;2023-06-22T04:48:31;19.65;;;9.50;;
40252;SDS011;25972;51.854;4.534;2023-06-22T04:50:58;19.17;;;9.30;;
40252;SDS011;25972;51.854;4.534;2023-06-22T04:53:29;20.40;;;9.13;;
40252;SDS011;25972;51.854;4.534;2023-06-22T04:55:56;16.42;;;8.93;;
40252;SDS011;25972;51.854;4.534;2023-06-22T04:58:22;18.15;;;9.52;;
40252;SDS011;25972;51.854;4.534;2023-06-22T05:00:48;16.95;;;8.15;;
40252;SDS011;25972;51.854;4.534;2023-06-22T05:03:17;16.92;;;8.63;;
40252;SDS011;25972;51.854;4.534;2023-06-22T05:05:47;16.38;;;8.32;;
40252;SDS011;25972;51.854;4.534;2023-06-22T05:08:13;16.63;;;7.82;;
40252;SDS011;25972;51.854;4.534;2023-06-22T05:10:40;14.77;;;7.78;;
40252;SDS011;25972;51.854;4.534;2023-06-22T05:13:07;14.32;;;8.00;;
40252;SDS011;25972;51.854;4.534;2023-06-22T05:15:32;15.90;;;8.60;;
40252;SDS011;25972;51.854;4.534;2023-06-22T05:18:02;13.90;;;7.10;;
40252;SDS011;25972;51.854;4.534;2023-06-22T05:20:30;13.57;;;7.15;;
40252;SDS011;25972;51.854;4.534;2023-06-22T05:22:57;15.02;;;6.88;;
40252;SDS011;25972;51.854;4.534;2023-06-22T05:25:23;11.98;;;6.22;;
40252;SDS011;25972;51.854;4.534;2023-06-22T05:27:51;13.27;;;7.18;;
40252;SDS011;25972;51.854;4.534;2023-06-22T05:30:17;11.50;;;6.28;;
40252;SDS011;25972;51.854;4.534;2023-06-22T05:32:44;11.15;;;5.70;;
40252;SDS011;25972;51.854;4.534;2023-06-22T05:35:10;12.75;;;6.18;;
40252;SDS011;25972;51.854;4.534;2023-06-22T05:37:37;10.98;;;5.93;;
40252;SDS011;25972;51.854;4.534;2023-06-22T05:40:03;14.40;;;6.18;;
40252;SDS011;25972;51.854;4.534;2023-06-22T05:42:32;13.55;;;6.47;;
40252;SDS011;25972;51.854;4.534;2023-06-22T05:44:59;12.30;;;6.80;;
40252;SDS011;25972;51.854;4.534;2023-06-22T05:47:25;10.13;;;5.88;;
40252;SDS011;25972;51.854;4.534;2023-06-22T05:49:52;13.73;;;6.07;;
40252;SDS011;25972;51.854;4.534;2023-06-22T05:52:18;10.57;;;5.80;;
40252;SDS011;25972;51.854;4.534;2023-06-22T05:54:44;12.50;;;6.10;;
40252;SDS011;25972;51.854;4.534;2023-06-22T05:57:10;12.57;;;6.07;;
40252;SDS011;25972;51.854;4.534;2023-06-22T05:59:36;10.20;;;5.20;;
40252;SDS011;25972;51.854;4.534;2023-06-22T06:02:04;10.52;;;5.60;;
40252;SDS011;25972;51.854;4.534;2023-06-22T06:04:30;11.13;;;5.28;;
40252;SDS011;25972;51.854;4.534;2023-06-22T06:06:56;11.18;;;5.88;;
40252;SDS011;25972;51.854;4.534;2023-06-22T06:09:23;11.57;;;5.57;;
40252;SDS011;25972;51.854;4.534;2023-06-22T06:11:49;11.15;;;4.97;;
40252;SDS011;25972;51.854;4.534;2023-06-22T06:14:15;11.13;;;5.53;;
40252;SDS011;25972;51.854;4.534;2023-06-22T06:16:45;9.32;;;5.35;;
40252;SDS011;25972;51.854;4.534;2023-06-22T06:19:13;9.35;;;4.88;;
40252;SDS011;25972;51.854;4.534;2023-06-22T06:21:39;10.15;;;5.22;;
40252;SDS011;25972;51.854;4.534;2023-06-22T06:24:05;9.98;;;5.32;;
40252;SDS011;25972;51.854;4.534;2023-06-22T06:26:31;10.38;;;5.15;;
40252;SDS011;25972;51.854;4.534;2023-06-22T06:28:59;12.02;;;5.50;;
40252;SDS011;25972;51.854;4.534;2023-06-22T06:31:25;8.93;;;4.85;;
40252;SDS011;25972;51.854;4.534;2023-06-22T06:33:54;10.52;;;5.43;;
40252;SDS011;25972;51.854;4.534;2023-06-22T06:36:25;11.65;;;5.10;;
40252;SDS011;25972;51.854;4.534;2023-06-22T06:38:51;9.32;;;4.95;;
40252;SDS011;25972;51.854;4.534;2023-06-22T06:41:17;9.55;;;5.13;;
40252;SDS011;25972;51.854;4.534;2023-06-22T06:43:47;11.25;;;5.10;;
40252;SDS011;25972;51.854;4.534;2023-06-22T06:46:13;8.52;;;4.63;;
40252;SDS011;25972;51.854;4.534;2023-06-22T06:48:39;9.80;;;4.63;;
40252;SDS011;25972;51.854;4.534;2023-06-22T06:51:05;9.57;;;4.30;;
40252;SDS011;25972;51.854;4.534;2023-06-22T06:53:35;10.88;;;4.82;;
40252;SDS011;25972;51.854;4.534;2023-06-22T06:56:03;10.93;;;4.65;;
40252;SDS011;25972;51.854;4.534;2023-06-22T06:58:30;8.82;;;4.28;;
40252;SDS011;25972;51.854;4.534;2023-06-22T07:00:56;7.03;;;3.70;;
40252;SDS011;25972;51.854;4.534;2023-06-22T07:03:22;7.97;;;3.97;;
40252;SDS011;25972;51.854;4.534;2023-06-22T07:05:49;9.38;;;3.60;;
40252;SDS011;25972;51.854;4.534;2023-06-22T07:08:15;8.13;;;3.70;;
40252;SDS011;25972;51.854;4.534;2023-06-22T07:10:42;6.20;;;2.88;;
40252;SDS011;25972;51.854;4.534;2023-06-22T07:13:08;7.78;;;3.60;;
40252;SDS011;25972;51.854;4.534;2023-06-22T07:15:34;9.73;;;3.40;;
40252;SDS011;25972;51.854;4.534;2023-06-22T07:18:00;6.93;;;3.67;;
40252;SDS011;25972;51.854;4.534;2023-06-22T07:20:26;6.43;;;2.97;;
40252;SDS011;25972;51.854;4.534;2023-06-22T07:22:52;7.13;;;3.40;;
40252;SDS011;25972;51.854;4.534;2023-06-22T07:25:18;6.03;;;3.25;;
40252;SDS011;25972;51.854;4.534;2023-06-22T07:27:56;7.18;;;3.45;;
40252;SDS011;25972;51.854;4.534;2023-06-22T07:30:23;8.57;;;3.30;;
40252;SDS011;25972;51.854;4.534;2023-06-22T07:32:50;6.25;;;2.90;;
40252;SDS011;25972;51.854;4.534;2023-06-22T07:35:16;6.95;;;3.28;;
40252;SDS011;25972;51.854;4.534;2023-06-22T07:37:42;6.50;;;3.03;;
40252;SDS011;25972;51.854;4.534;2023-06-22T07:40:08;6.07;;;3.20;;
40252;SDS011;25972;51.854;4.534;2023-06-22T07:42:35;8.05;;;3.22;;
40252;SDS011;25972;51.854;4.534;2023-06-22T07:45:03;6.00;;;2.45;;
40252;SDS011;25972;51.854;4.534;2023-06-22T07:47:31;6.63;;;3.28;;
40252;SDS011;25972;51.854;4.534;2023-06-22T07:50:00;6.05;;;2.67;;
40252;SDS011;25972;51.854;4.534;2023-06-22T07:52:28;5.40;;;2.55;;
40252;SDS011;25972;51.854;4.534;2023-06-22T07:54:54;4.45;;;2.42;;
40252;SDS011;25972;51.854;4.534;2023-06-22T07:57:20;3.72;;;1.67;;
40252;SDS011;25972;51.854;4.534;2023-06-22T07:59:46;5.05;;;2.17;;
40252;SDS011;25972;51.854;4.534;2023-06-22T08:02:14;4.15;;;2.13;;
40252;SDS011;25972;51.854;4.534;2023-06-22T08:04:40;4.22;;;2.10;;
40252;SDS011;25972;51.854;4.534;2023-06-22T08:07:07;3.42;;;1.80;;
40252;SDS011;25972;51.854;4.534;2023-06-22T08:09:33;4.70;;;2.00;;
40252;SDS011;25972;51.854;4.534;2023-06-22T08:11:59;2.67;;;1.63;;
40252;SDS011;25972;51.854;4.534;2023-06-22T08:14:25;3.53;;;1.42;;
40252;SDS011;25972;51.854;4.534;2023-06-22T08:16:52;3.22;;;1.52;;
40252;SDS011;25972;51.854;4.534;2023-06-22T08:19:19;3.60;;;1.55;;
40252;SDS011;25972;51.854;4.534;2023-06-22T08:21:46;4.18;;;2.10;;
40252;SDS011;25972;51.854;4.534;2023-06-22T08:24:12;5.35;;;2.30;;
40252;SDS011;25972;51.854;4.534;2023-06-22T08:26:38;5.30;;;2.00;;
40252;SDS011;25972;51.854;4.534;2023-06-22T08:29:04;4.22;;;2.05;;
40252;SDS011;25972;51.854;4.534;2023-06-22T08:31:30;6.13;;;2.20;;
40252;SDS011;25972;51.854;4.534;2023-06-22T08:34:00;5.90;;;2.63;;
40252;SDS011;25972;51.854;4.534;2023-06-22T08:36:27;5.72;;;2.88;;
40252;SDS011;25972;51.854;4.534;2023-06-22T08:38:58;5.28;;;2.65;;
40252;SDS011;25972;51.854;4.534;2023-06-22T08:41:28;5.78;;;2.38;;
40252;SDS011;25972;51.854;4.534;2023-06-22T08:43:54;5.47;;;2.80;;
40252;SDS011;25972;51.854;4.534;2023-06-22T08:46:20;6.25;;;3.25;;
40252;SDS011;25972;51.854;4.534;2023-06-22T08:48:49;8.02;;;3.65;;
40252;SDS011;25972;51.854;4.534;2023-06-22T08:51:15;7.05;;;3.63;;
40252;SDS011;25972;51.854;4.534;2023-06-22T08:53:44;7.05;;;3.70;;
40252;SDS011;25972;51.854;4.534;2023-06-22T08:56:10;9.27;;;3.58;;
40252;SDS011;25972;51.854;4.534;2023-06-22T08:58:36;7.93;;;3.90;;
40252;SDS011;25972;51.854;4.534;2023-06-22T09:01:02;7.80;;;4.03;;
40252;SDS011;25972;51.854;4.534;2023-06-22T09:03:31;8.18;;;4.30;;
40252;SDS011;25972;51.854;4.534;2023-06-22T09:05:58;9.27;;;4.93;;
40252;SDS011;25972;51.854;4.534;2023-06-22T09:08:24;9.70;;;5.00;;
40252;SDS011;25972;51.854;4.534;2023-06-22T09:10:51;9.38;;;4.97;;
40252;SDS011;25972;51.854;4.534;2023-06-22T09:13:17;12.07;;;5.85;;
40252;SDS011;25972;51.854;4.534;2023-06-22T09:15:44;11.43;;;4.47;;
40252;SDS011;25972;51.854;4.534;2023-06-22T09:18:10;11.88;;;5.70;;
40252;SDS011;25972;51.854;4.534;2023-06-22T09:20:36;10.27;;;5.55;;
40252;SDS011;25972;51.854;4.534;2023-06-22T09:23:03;12.10;;;6.07;;
40252;SDS011;25972;51.854;4.534;2023-06-22T09:25:29;11.20;;;6.75;;
40252;SDS011;25972;51.854;4.534;2023-06-22T09:27:56;13.68;;;6.63;;
40252;SDS011;25972;51.854;4.534;2023-06-22T09:30:22;13.68;;;6.82;;
40252;SDS011;25972;51.854;4.534;2023-06-22T09:32:48;10.70;;;5.85;;
40252;SDS011;25972;51.854;4.534;2023-06-22T09:35:14;12.77;;;6.07;;
40252;SDS011;25972;51.854;4.534;2023-06-22T09:37:40;12.18;;;7.10;;
40252;SDS011;25972;51.854;4.534;2023-06-22T09:40:07;11.07;;;6.95;;
40252;SDS011;25972;51.854;4.534;2023-06-22T09:42:35;12.02;;;7.40;;
40252;SDS011;25972;51.854;4.534;2023-06-22T09:45:03;13.45;;;6.90;;
40252;SDS011;25972;51.854;4.534;2023-06-22T09:47:30;11.43;;;6.55;;
40252;SDS011;25972;51.854;4.534;2023-06-22T09:49:56;11.48;;;6.03;;
40252;SDS011;25972;51.854;4.534;2023-06-22T09:52:24;12.65;;;5.72;;
40252;SDS011;25972;51.854;4.534;2023-06-22T09:54:51;12.30;;;5.90;;
40252;SDS011;25972;51.854;4.534;2023-06-22T09:57:16;12.65;;;6.50;;
40252;SDS011;25972;51.854;4.534;2023-06-22T09:59:43;12.43;;;7.40;;
40252;SDS011;25972;51.854;4.534;2023-06-22T10:02:10;13.15;;;7.57;;
40252;SDS011;25972;51.854;4.534;2023-06-22T10:04:36;13.35;;;7.40;;
40252;SDS011;25972;51.854;4.534;2023-06-22T10:07:02;13.18;;;7.28;;
40252;SDS011;25972;51.854;4.534;2023-06-22T10:09:29;13.93;;;6.90;;
40252;SDS011;25972;51.854;4.534;2023-06-22T10:11:55;13.43;;;6.63;;
40252;SDS011;25972;51.854;4.534;2023-06-22T10:14:21;14.10;;;7.45;;
40252;SDS011;25972;51.854;4.534;2023-06-22T10:16:48;12.00;;;6.82;;
40252;SDS011;25972;51.854;4.534;2023-06-22T10:19:15;13.95;;;7.32;;
40252;SDS011;25972;51.854;4.534;2023-06-22T10:21:41;14.60;;;7.15;;
40252;SDS011;25972;51.854;4.534;2023-06-22T10:24:07;13.20;;;7.00;;
40252;SDS011;25972;51.854;4.534;2023-06-22T10:26:34;15.45;;;7.25;;
40252;SDS011;25972;51.854;4.534;2023-06-22T10:29:01;11.38;;;6.25;;
40252;SDS011;25972;51.854;4.534;2023-06-22T10:31:28;12.25;;;6.50;;
40252;SDS011;25972;51.854;4.534;2023-06-22T10:33:54;12.45;;;6.80;;
40252;SDS011;25972;51.854;4.534;2023-06-22T10:36:22;12.75;;;6.15;;
40252;SDS011;25972;51.854;4.534;2023-06-22T10:38:48;13.38;;;7.28;;
40252;SDS011;25972;51.854;4.534;2023-06-22T10:41:15;12.70;;;6.40;;
40252;SDS011;25972;51.854;4.534;2023-06-22T10:43:41;10.25;;;6.38;;
40252;SDS011;25972;51.854;4.534;2023-06-22T10:46:07;12.25;;;6.70;;
40252;SDS011;25972;51.854;4.534;2023-06-22T10:48:34;10.82;;;6.25;;
40252;SDS011;25972;51.854;4.534;2023-06-22T10:51:00;11.35;;;5.95;;
40252;SDS011;25972;51.854;4.534;2023-06-22T10:53:28;10.95;;;6.32;;
40252;SDS011;25972;51.854;4.534;2023-06-22T10:55:53;13.55;;;7.15;;
40252;SDS011;25972;51.854;4.534;2023-06-22T10:58:19;11.25;;;6.30;;
40252;SDS011;25972;51.854;4.534;2023-06-22T11:00:46;11.98;;;6.95;;
40252;SDS011;25972;51.854;4.534;2023-06-22T11:03:12;10.90;;;6.07;;
40252;SDS011;25972;51.854;4.534;2023-06-22T11:05:39;11.88;;;6.75;;
40252;SDS011;25972;51.854;4.534;2023-06-22T11:08:05;9.90;;;5.75;;
40252;SDS011;25972;51.854;4.534;2023-06-22T11:10:33;12.95;;;6.72;;
40252;SDS011;25972;51.854;4.534;2023-06-22T11:12:59;11.88;;;6.43;;
40252;SDS011;25972;51.854;4.534;2023-06-22T11:15:25;11.15;;;6.05;;
40252;SDS011;25972;51.854;4.534;2023-06-22T11:17:51;10.90;;;6.38;;
40252;SDS011;25972;51.854;4.534;2023-06-22T11:20:17;12.23;;;7.22;;
40252;SDS011;25972;51.854;4.534;2023-06-22T11:22:43;11.73;;;6.65;;
40252;SDS011;25972;51.854;4.534;2023-06-22T11:25:09;10.70;;;6.57;;
40252;SDS011;25972;51.854;4.534;2023-06-22T11:27:38;12.05;;;6.43;;
40252;SDS011;25972;51.854;4.534;2023-06-22T11:30:05;11.18;;;6.60;;
40252;SDS011;25972;51.854;4.534;2023-06-22T11:32:32;11.18;;;6.95;;
40252;SDS011;25972;51.854;4.534;2023-06-22T11:34:58;11.98;;;6.45;;
40252;SDS011;25972;51.854;4.534;2023-06-22T11:37:25;13.68;;;6.40;;
40252;SDS011;25972;51.854;4.534;2023-06-22T11:39:51;12.70;;;6.35;;
40252;SDS011;25972;51.854;4.534;2023-06-22T11:42:20;10.65;;;6.70;;
40252;SDS011;25972;51.854;4.534;2023-06-22T11:44:47;12.15;;;5.90;;
40252;SDS011;25972;51.854;4.534;2023-06-22T11:47:14;11.98;;;5.80;;
40252;SDS011;25972;51.854;4.534;2023-06-22T11:49:40;9.38;;;5.50;;
40252;SDS011;25972;51.854;4.534;2023-06-22T11:52:07;9.30;;;5.90;;
40252;SDS011;25972;51.854;4.534;2023-06-22T11:54:33;9.07;;;5.18;;
40252;SDS011;25972;51.854;4.534;2023-06-22T11:56:59;9.82;;;5.32;;
40252;SDS011;25972;51.854;4.534;2023-06-22T11:59:25;9.57;;;5.05;;
40252;SDS011;25972;51.854;4.534;2023-06-22T12:01:52;10.05;;;4.88;;
40252;SDS011;25972;51.854;4.534;2023-06-22T12:04:18;9.82;;;5.10;;
40252;SDS011;25972;51.854;4.534;2023-06-22T12:06:45;10.90;;;5.07;;
40252;SDS011;25972;51.854;4.534;2023-06-22T12:09:11;12.65;;;5.45;;
40252;SDS011;25972;51.854;4.534;2023-06-22T12:11:39;10.38;;;5.25;;
40252;SDS011;25972;51.854;4.534;2023-06-22T12:14:05;10.82;;;5.78;;
40252;SDS011;25972;51.854;4.534;2023-06-22T12:16:31;11.32;;;5.30;;
40252;SDS011;25972;51.854;4.534;2023-06-22T12:18:58;11.00;;;5.72;;
40252;SDS011;25972;51.854;4.534;2023-06-22T12:21:25;9.77;;;5.82;;
40252;SDS011;25972;51.854;4.534;2023-06-22T12:23:51;11.43;;;6.05;;
40252;SDS011;25972;51.854;4.534;2023-06-22T12:26:17;12.07;;;6.22;;
40252;SDS011;25972;51.854;4.534;2023-06-22T12:28:43;14.48;;;6.22;;
40252;SDS011;25972;51.854;4.534;2023-06-22T12:31:09;12.38;;;7.18;;
40252;SDS011;25972;51.854;4.534;2023-06-22T12:33:35;12.10;;;7.15;;
40252;SDS011;25972;51.854;4.534;2023-06-22T12:36:03;16.40;;;7.03;;
40252;SDS011;25972;51.854;4.534;2023-06-22T12:38:30;11.27;;;6.88;;
40252;SDS011;25972;51.854;4.534;2023-06-22T12:40:56;11.70;;;7.07;;
40252;SDS011;25972;51.854;4.534;2023-06-22T12:43:22;12.70;;;7.28;;
40252;SDS011;25972;51.854;4.534;2023-06-22T12:45:49;10.52;;;6.57;;
40252;SDS011;25972;51.854;4.534;2023-06-22T12:48:15;13.38;;;7.50;;
40252;SDS011;25972;51.854;4.534;2023-06-22T12:50:42;13.05;;;7.30;;
40252;SDS011;25972;51.854;4.534;2023-06-22T12:53:10;14.00;;;7.68;;
40252;SDS011;25972;51.854;4.534;2023-06-22T12:55:35;15.02;;;7.97;;
40252;SDS011;25972;51.854;4.534;2023-06-22T12:58:01;13.38;;;7.97;;
40252;SDS011;25972;51.854;4.534;2023-06-22T13:00:28;13.90;;;8.23;;
40252;SDS011;25972;51.854;4.534;2023-06-22T13:02:54;13.93;;;7.45;;
40252;SDS011;25972;51.854;4.534;2023-06-22T13:05:20;13.20;;;7.40;;
40252;SDS011;25972;51.854;4.534;2023-06-22T13:07:46;14.20;;;7.35;;
40252;SDS011;25972;51.854;4.534;2023-06-22T13:10:14;13.95;;;8.02;;
40252;SDS011;25972;51.854;4.534;2023-06-22T13:12:40;13.80;;;8.50;;
40252;SDS011;25972;51.854;4.534;2023-06-22T13:15:06;18.02;;;8.73;;
40252;SDS011;25972;51.854;4.534;2023-06-22T13:17:32;18.25;;;9.00;;
40252;SDS011;25972;51.854;4.534;2023-06-22T13:19:59;13.90;;;8.20;;
40252;SDS011;25972;51.854;4.534;2023-06-22T13:22:29;16.27;;;8.90;;
40252;SDS011;25972;51.854;4.534;2023-06-22T13:24:55;14.63;;;8.82;;
40252;SDS011;25972;51.854;4.534;2023-06-22T13:27:23;15.73;;;9.07;;
40252;SDS011;25972;51.854;4.534;2023-06-22T13:29:50;17.45;;;9.32;;
40252;SDS011;25972;51.854;4.534;2023-06-22T13:32:16;15.77;;;9.63;;
40252;SDS011;25972;51.854;4.534;2023-06-22T13:34:42;17.40;;;9.77;;
40252;SDS011;25972;51.854;4.534;2023-06-22T13:37:08;16.98;;;10.13;;
40252;SDS011;25972;51.854;4.534;2023-06-22T13:39:34;16.80;;;10.35;;
40252;SDS011;25972;51.854;4.534;2023-06-22T13:42:00;18.63;;;11.02;;
40252;SDS011;25972;51.854;4.534;2023-06-22T13:44:28;20.20;;;11.05;;
40252;SDS011;25972;51.854;4.534;2023-06-22T13:46:54;18.05;;;11.73;;
40252;SDS011;25972;51.854;4.534;2023-06-22T13:49:20;21.88;;;11.15;;
40252;SDS011;25972;51.854;4.534;2023-06-22T13:51:47;19.60;;;12.35;;
40252;SDS011;25972;51.854;4.534;2023-06-22T13:54:14;22.15;;;11.52;;
40252;SDS011;25972;51.854;4.534;2023-06-22T13:56:40;19.17;;;10.02;;
40252;SDS011;25972;51.854;4.534;2023-06-22T13:59:06;18.70;;;11.77;;
40252;SDS011;25972;51.854;4.534;2023-06-22T14:01:36;17.83;;;11.13;;
40252;SDS011;25972;51.854;4.534;2023-06-22T14:04:02;17.05;;;9.90;;
40252;SDS011;25972;51.854;4.534;2023-06-22T14:06:28;18.40;;;10.52;;
40252;SDS011;25972;51.854;4.534;2023-06-22T14:08:54;20.42;;;10.00;;
40252;SDS011;25972;51.854;4.534;2023-06-22T14:11:20;16.52;;;10.10;;
40252;SDS011;25972;51.854;4.534;2023-06-22T14:13:46;20.38;;;11.15;;
40252;SDS011;25972;51.854;4.534;2023-06-22T14:16:12;18.65;;;11.32;;
40252;SDS011;25972;51.854;4.534;2023-06-22T14:18:40;16.75;;;10.55;;
40252;SDS011;25972;51.854;4.534;2023-06-22T14:21:06;19.60;;;10.73;;
40252;SDS011;25972;51.854;4.534;2023-06-22T14:23:32;19.15;;;11.45;;
40252;SDS011;25972;51.854;4.534;2023-06-22T14:25:58;18.35;;;10.55;;
40252;SDS011;25972;51.854;4.534;2023-06-22T14:28:25;19.42;;;11.63;;
40252;SDS011;25972;51.854;4.534;2023-06-22T14:30:51;21.73;;;11.63;;
40252;SDS011;25972;51.854;4.534;2023-06-22T14:33:17;22.25;;;12.73;;
40252;SDS011;25972;51.854;4.534;2023-06-22T14:35:44;22.08;;;12.80;;
40252;SDS011;25972;51.854;4.534;2023-06-22T14:38:10;18.42;;;11.57;;
40252;SDS011;25972;51.854;4.534;2023-06-22T14:40:36;17.67;;;10.50;;